sensor_id;sensor_type;location;lat;lon;timestamp;temperature;humidity
4820;DHT22;2424;49.696;6.630;2024-03-23T00:58:13;10.40;99.90
4820;DHT22;2424;49.696;6.630;2024-03-23T01:03:35;10.40;99.90
4820;DHT22;2424;49.696;6.630;2024-03-23T01:08:57;10.40;99.90
4820;DHT22;2424;49.696;6.630;2024-03-23T01:14:20;10.50;99.90
4820;DHT22;2424;49.696;6.630;2024-03-23T01:19:43;10.50;99.90
4820;DHT22;2424;49.696;6.630;2024-03-23T01:25:05;10.40;99.90
4820;DHT22;2424;49.696;6.630;2024-03-23T01:30:29;10.40;99.90
4820;DHT22;2424;49.696;6.630;2024-03-23T01:35:51;10.30;99.90
4820;DHT22;2424;49.696;6.630;2024-03-23T01:41:13;10.30;99.90
4820;DHT22;2424;49.696;6.630;2024-03-23T01:46:37;10.30;99.90
4820;DHT22;2424;49.696;6.630;2024-03-23T01:52:00;10.30;99.90
4820;DHT22;2424;49.696;6.630;2024-03-23T01:57:22;10.20;99.90
4820;DHT22;2424;49.696;6.630;2024-03-23T02:02:45;10.30;99.90
4820;DHT22;2424;49.696;6.630;2024-03-23T02:08:07;10.20;99.90
4820;DHT22;2424;49.696;6.630;2024-03-23T02:13:29;10.10;99.90
4820;DHT22;2424;49.696;6.630;2024-03-23T02:18:53;10.10;99.90
4820;DHT22;2424;49.696;6.630;2024-03-23T02:24:17;10.10;99.90
4820;DHT22;2424;49.696;6.630;2024-03-23T02:29:38;9.40;99.90
4820;DHT22;2424;49.696;6.630;2024-03-23T02:35:01;9.20;99.90
4820;DHT22;2424;49.696;6.630;2024-03-23T02:40:24;9.10;99.90
4820;DHT22;2424;49.696;6.630;2024-03-23T02:45:46;9.10;99.90
4820;DHT22;2424;49.696;6.630;2024-03-23T02:51:08;8.90;99.90
4820;DHT22;2424;49.696;6.630;2024-03-23T02:56:32;8.80;99.90
4820;DHT22;2424;49.696;6.630;2024-03-23T03:01:54;8.70;99.90
4820;DHT22;2424;49.696;6.630;2024-03-23T03:07:16;8.80;99.90
4820;DHT22;2424;49.696;6.630;2024-03-23T03:12:39;8.70;99.90
4820;DHT22;2424;49.696;6.630;2024-03-23T03:18:01;8.60;99.90
4820;DHT22;2424;49.696;6.630;2024-03-23T03:23:23;8.40;99.90
4820;DHT22;2424;49.696;6.630;2024-03-23T03:28:46;8.20;99.90
4820;DHT22;2424;49.696;6.630;2024-03-23T03:34:09;8.20;99.90
4820;DHT22;2424;49.696;6.630;2024-03-23T03:39:31;8.40;99.90
4820;DHT22;2424;49.696;6.630;2024-03-23T03:44:54;8.40;99.90
4820;DHT22;2424;49.696;6.630;2024-03-23T03:50:16;8.30;99.90
4820;DHT22;2424;49.696;6.630;2024-03-23T03:55:38;8.20;99.90
4820;DHT22;2424;49.696;6.630;2024-03-23T04:01:02;8.00;99.90
4820;DHT22;2424;49.696;6.630;2024-03-23T04:06:24;8.00;99.90
4820;DHT22;2424;49.696;6.630;2024-03-23T04:11:46;8.00;99.90
4820;DHT22;2424;49.696;6.630;2024-03-23T04:17:09;8.00;99.90
4820;DHT22;2424;49.696;6.630;2024-03-23T04:22:31;8.00;99.90
4820;DHT22;2424;49.696;6.630;2024-03-23T04:27:53;8.00;99.90
4820;DHT22;2424;49.696;6.630;2024-03-23T04:33:17;8.00;99.90
4820;DHT22;2424;49.696;6.630;2024-03-23T04:38:38;7.70;99.90
4820;DHT22;2424;49.696;6.630;2024-03-23T04:44:00;7.40;99.90
4820;DHT22;2424;49.696;6.630;2024-03-23T04:49:24;7.30;99.90
4820;DHT22;2424;49.696;6.630;2024-03-23T04:54:46;7.40;99.90
4820;DHT22;2424;49.696;6.630;2024-03-23T05:00:09;7.30;99.90
4820;DHT22;2424;49.696;6.630;2024-03-23T05:05:39;7.20;99.90
4820;DHT22;2424;49.696;6.630;2024-03-23T05:11:01;7.30;99.90
4820;DHT22;2424;49.696;6.630;2024-03-23T05:16:23;7.30;99.90
4820;DHT22;2424;49.696;6.630;2024-03-23T05:21:46;7.20;99.90
4820;DHT22;2424;49.696;6.630;2024-03-23T05:27:08;7.20;99.90
4820;DHT22;2424;49.696;6.630;2024-03-23T05:32:30;7.10;99.90
4820;DHT22;2424;49.696;6.630;2024-03-23T05:37:53;7.10;99.90
4820;DHT22;2424;49.696;6.630;2024-03-23T05:43:15;7.10;99.90
4820;DHT22;2424;49.696;6.630;2024-03-23T05:48:37;7.10;99.90
4820;DHT22;2424;49.696;6.630;2024-03-23T05:54:00;7.10;99.90
4820;DHT22;2424;49.696;6.630;2024-03-23T05:59:22;7.00;99.90
4820;DHT22;2424;49.696;6.630;2024-03-23T06:04:45;6.90;99.90
4820;DHT22;2424;49.696;6.630;2024-03-23T06:10:09;6.90;99.90
4820;DHT22;2424;49.696;6.630;2024-03-23T06:15:31;6.90;99.90
4820;DHT22;2424;49.696;6.630;2024-03-23T06:20:53;6.80;99.90
4820;DHT22;2424;49.696;6.630;2024-03-23T06:26:17;6.80;99.90
4820;DHT22;2424;49.696;6.630;2024-03-23T06:31:39;6.80;99.90
4820;DHT22;2424;49.696;6.630;2024-03-23T06:37:00;6.70;99.90
4820;DHT22;2424;49.696;6.630;2024-03-23T06:42:25;6.80;99.90
4820;DHT22;2424;49.696;6.630;2024-03-23T06:47:47;6.80;99.90
4820;DHT22;2424;49.696;6.630;2024-03-23T06:53:09;6.60;99.90
4820;DHT22;2424;49.696;6.630;2024-03-23T06:58:32;6.60;99.90
4820;DHT22;2424;49.696;6.630;2024-03-23T07:03:54;6.60;99.90
4820;DHT22;2424;49.696;6.630;2024-03-23T07:09:16;6.60;99.90
4820;DHT22;2424;49.696;6.630;2024-03-23T07:14:39;6.70;99.90
4820;DHT22;2424;49.696;6.630;2024-03-23T07:20:01;6.60;99.90
4820;DHT22;2424;49.696;6.630;2024-03-23T07:25:24;6.60;99.90
4820;DHT22;2424;49.696;6.630;2024-03-23T07:30:58;6.80;99.90
4820;DHT22;2424;49.696;6.630;2024-03-23T07:36:20;6.80;99.90
4820;DHT22;2424;49.696;6.630;2024-03-23T07:41:44;6.90;99.90
4820;DHT22;2424;49.696;6.630;2024-03-23T07:47:08;7.00;99.90
4820;DHT22;2424;49.696;6.630;2024-03-23T07:52:30;7.10;99.90
4820;DHT22;2424;49.696;6.630;2024-03-23T07:57:52;6.90;99.90
4820;DHT22;2424;49.696;6.630;2024-03-23T08:03:15;7.00;99.90
4820;DHT22;2424;49.696;6.630;2024-03-23T08:08:38;6.90;99.90
4820;DHT22;2424;49.696;6.630;2024-03-23T08:14:00;7.00;99.90
4820;DHT22;2424;49.696;6.630;2024-03-23T08:19:24;7.00;99.90
4820;DHT22;2424;49.696;6.630;2024-03-23T08:24:46;7.10;99.90
4820;DHT22;2424;49.696;6.630;2024-03-23T08:30:09;7.30;99.90
4820;DHT22;2424;49.696;6.630;2024-03-23T08:35:32;7.30;99.90
4820;DHT22;2424;49.696;6.630;2024-03-23T08:40:58;7.40;99.90
4820;DHT22;2424;49.696;6.630;2024-03-23T08:46:20;7.50;99.90
4820;DHT22;2424;49.696;6.630;2024-03-23T08:51:43;7.60;99.90
4820;DHT22;2424;49.696;6.630;2024-03-23T08:57:05;7.70;99.90
4820;DHT22;2424;49.696;6.630;2024-03-23T09:02:27;7.90;99.90
4820;DHT22;2424;49.696;6.630;2024-03-23T09:07:51;7.80;99.90
4820;DHT22;2424;49.696;6.630;2024-03-23T09:13:12;7.60;99.90
4820;DHT22;2424;49.696;6.630;2024-03-23T09:18:35;7.50;99.90
4820;DHT22;2424;49.696;6.630;2024-03-23T09:23:59;7.60;99.90
4820;DHT22;2424;49.696;6.630;2024-03-23T09:29:21;7.80;99.90
4820;DHT22;2424;49.696;6.630;2024-03-23T09:34:43;8.00;99.90
4820;DHT22;2424;49.696;6.630;2024-03-23T09:40:09;8.10;99.90
4820;DHT22;2424;49.696;6.630;2024-03-23T09:45:35;8.20;99.90
4820;DHT22;2424;49.696;6.630;2024-03-23T09:50:58;8.10;99.90
4820;DHT22;2424;49.696;6.630;2024-03-23T09:56:21;8.30;99.90
4820;DHT22;2424;49.696;6.630;2024-03-23T10:01:44;8.30;99.90
4820;DHT22;2424;49.696;6.630;2024-03-23T10:07:13;8.40;99.90
4820;DHT22;2424;49.696;6.630;2024-03-23T10:12:44;8.60;99.90
4820;DHT22;2424;49.696;6.630;2024-03-23T10:18:17;8.80;99.90
4820;DHT22;2424;49.696;6.630;2024-03-23T10:23:41;9.10;99.90
4820;DHT22;2424;49.696;6.630;2024-03-23T10:29:04;9.20;99.90
4820;DHT22;2424;49.696;6.630;2024-03-23T10:34:28;8.80;99.90
4820;DHT22;2424;49.696;6.630;2024-03-23T10:39:50;8.70;99.90
4820;DHT22;2424;49.696;6.630;2024-03-23T10:45:13;8.70;99.90
4820;DHT22;2424;49.696;6.630;2024-03-23T10:50:35;8.60;99.90
4820;DHT22;2424;49.696;6.630;2024-03-23T10:55:57;7.90;99.90
4820;DHT22;2424;49.696;6.630;2024-03-23T11:01:21;6.10;99.90
4820;DHT22;2424;49.696;6.630;2024-03-23T11:06:43;5.70;99.90
4820;DHT22;2424;49.696;6.630;2024-03-23T11:12:24;5.80;99.90
4820;DHT22;2424;49.696;6.630;2024-03-23T11:18:03;6.00;99.90
4820;DHT22;2424;49.696;6.630;2024-03-23T11:23:27;6.10;99.90
4820;DHT22;2424;49.696;6.630;2024-03-23T11:28:49;6.30;99.90
4820;DHT22;2424;49.696;6.630;2024-03-23T11:34:13;6.50;99.90
4820;DHT22;2424;49.696;6.630;2024-03-23T11:39:35;6.80;99.90
4820;DHT22;2424;49.696;6.630;2024-03-23T11:44:57;7.20;99.90
4820;DHT22;2424;49.696;6.630;2024-03-23T11:50:23;7.50;99.90
4820;DHT22;2424;49.696;6.630;2024-03-23T11:55:46;7.50;99.90
4820;DHT22;2424;49.696;6.630;2024-03-23T12:01:10;8.00;99.90
4820;DHT22;2424;49.696;6.630;2024-03-23T12:06:33;8.30;99.90
4820;DHT22;2424;49.696;6.630;2024-03-23T12:11:55;8.20;99.90
4820;DHT22;2424;49.696;6.630;2024-03-23T12:17:17;8.00;99.90
4820;DHT22;2424;49.696;6.630;2024-03-23T12:22:44;8.30;99.90
4820;DHT22;2424;49.696;6.630;2024-03-23T12:28:07;8.10;99.90
4820;DHT22;2424;49.696;6.630;2024-03-23T12:33:29;8.10;99.90
4820;DHT22;2424;49.696;6.630;2024-03-23T12:38:52;8.10;99.90
4820;DHT22;2424;49.696;6.630;2024-03-23T12:44:14;7.80;99.90
4820;DHT22;2424;49.696;6.630;2024-03-23T12:49:36;7.40;99.90
4820;DHT22;2424;49.696;6.630;2024-03-23T12:55:00;7.10;99.90
4820;DHT22;2424;49.696;6.630;2024-03-23T13:00:22;6.80;99.90
4820;DHT22;2424;49.696;6.630;2024-03-23T13:05:43;7.30;99.90
4820;DHT22;2424;49.696;6.630;2024-03-23T13:11:07;7.80;99.90
4820;DHT22;2424;49.696;6.630;2024-03-23T13:16:31;8.10;99.90
4820;DHT22;2424;49.696;6.630;2024-03-23T13:21:53;8.00;99.90
4820;DHT22;2424;49.696;6.630;2024-03-23T13:27:16;7.80;99.90
4820;DHT22;2424;49.696;6.630;2024-03-23T13:32:39;7.50;99.90
4820;DHT22;2424;49.696;6.630;2024-03-23T13:38:01;7.10;99.90
4820;DHT22;2424;49.696;6.630;2024-03-23T13:43:25;6.50;99.90
4820;DHT22;2424;49.696;6.630;2024-03-23T13:48:48;6.60;99.90
4820;DHT22;2424;49.696;6.630;2024-03-23T13:54:10;7.80;99.90
4820;DHT22;2424;49.696;6.630;2024-03-23T13:59:33;8.00;99.90
4820;DHT22;2424;49.696;6.630;2024-03-23T14:04:56;7.90;99.90
4820;DHT22;2424;49.696;6.630;2024-03-23T14:10:18;8.30;99.90
4820;DHT22;2424;49.696;6.630;2024-03-23T14:15:41;8.50;99.90
4820;DHT22;2424;49.696;6.630;2024-03-23T14:21:03;8.10;99.90
4820;DHT22;2424;49.696;6.630;2024-03-23T14:26:25;7.70;99.90
4820;DHT22;2424;49.696;6.630;2024-03-23T14:31:49;7.60;99.90
4820;DHT22;2424;49.696;6.630;2024-03-23T14:37:11;6.90;99.90
4820;DHT22;2424;49.696;6.630;2024-03-23T14:42:33;6.40;99.90
4820;DHT22;2424;49.696;6.630;2024-03-23T14:47:56;5.60;99.90
4820;DHT22;2424;49.696;6.630;2024-03-23T14:53:19;4.90;99.90
4820;DHT22;2424;49.696;6.630;2024-03-23T14:58:41;4.70;99.90
4820;DHT22;2424;49.696;6.630;2024-03-23T15:04:05;5.20;99.90
4820;DHT22;2424;49.696;6.630;2024-03-23T15:09:27;5.20;99.90
4820;DHT22;2424;49.696;6.630;2024-03-23T15:14:49;5.10;99.90
4820;DHT22;2424;49.696;6.630;2024-03-23T15:20:12;5.20;99.90
4820;DHT22;2424;49.696;6.630;2024-03-23T15:25:34;5.30;99.90
4820;DHT22;2424;49.696;6.630;2024-03-23T15:30:58;5.50;99.90
4820;DHT22;2424;49.696;6.630;2024-03-23T15:36:22;5.40;99.90
4820;DHT22;2424;49.696;6.630;2024-03-23T15:41:44;5.40;99.90
4820;DHT22;2424;49.696;6.630;2024-03-23T15:47:06;5.50;99.90
4820;DHT22;2424;49.696;6.630;2024-03-23T15:52:30;5.60;99.90
4820;DHT22;2424;49.696;6.630;2024-03-23T15:57:52;5.80;99.90
4820;DHT22;2424;49.696;6.630;2024-03-23T16:03:13;5.80;99.90
4820;DHT22;2424;49.696;6.630;2024-03-23T16:08:37;5.90;99.90
4820;DHT22;2424;49.696;6.630;2024-03-23T16:13:59;5.90;99.90
4820;DHT22;2424;49.696;6.630;2024-03-23T16:19:21;6.00;99.90
4820;DHT22;2424;49.696;6.630;2024-03-23T16:24:44;5.90;99.90
4820;DHT22;2424;49.696;6.630;2024-03-23T16:30:07;5.90;99.90
4820;DHT22;2424;49.696;6.630;2024-03-23T16:35:30;5.80;99.90
4820;DHT22;2424;49.696;6.630;2024-03-23T16:40:58;5.90;99.90
4820;DHT22;2424;49.696;6.630;2024-03-23T16:46:21;6.20;99.90
4820;DHT22;2424;49.696;6.630;2024-03-23T16:51:43;6.20;99.90
4820;DHT22;2424;49.696;6.630;2024-03-23T16:57:06;6.20;99.90
4820;DHT22;2424;49.696;6.630;2024-03-23T17:02:28;6.20;99.90
4820;DHT22;2424;49.696;6.630;2024-03-23T17:07:50;6.20;99.90
4820;DHT22;2424;49.696;6.630;2024-03-23T17:13:15;6.20;99.90
4820;DHT22;2424;49.696;6.630;2024-03-23T17:18:36;5.90;99.90
4820;DHT22;2424;49.696;6.630;2024-03-23T17:23:59;5.80;99.90
4820;DHT22;2424;49.696;6.630;2024-03-23T17:29:22;5.70;99.90
4820;DHT22;2424;49.696;6.630;2024-03-23T17:34:44;5.50;99.90
4820;DHT22;2424;49.696;6.630;2024-03-23T17:40:07;5.40;99.90
4820;DHT22;2424;49.696;6.630;2024-03-23T17:45:30;5.50;99.90
4820;DHT22;2424;49.696;6.630;2024-03-23T17:51:01;5.40;99.90
4820;DHT22;2424;49.696;6.630;2024-03-23T17:56:23;5.40;99.90
4820;DHT22;2424;49.696;6.630;2024-03-23T18:01:46;5.30;99.90
4820;DHT22;2424;49.696;6.630;2024-03-23T18:07:08;5.30;99.90
4820;DHT22;2424;49.696;6.630;2024-03-23T18:12:30;5.30;99.90
4820;DHT22;2424;49.696;6.630;2024-03-23T18:17:54;5.30;99.90
4820;DHT22;2424;49.696;6.630;2024-03-23T18:23:16;5.30;99.90
4820;DHT22;2424;49.696;6.630;2024-03-23T18:28:38;5.20;99.90
4820;DHT22;2424;49.696;6.630;2024-03-23T18:34:01;5.10;99.90
4820;DHT22;2424;49.696;6.630;2024-03-23T18:39:23;5.10;99.90
4820;DHT22;2424;49.696;6.630;2024-03-23T18:44:48;5.10;99.90
4820;DHT22;2424;49.696;6.630;2024-03-23T18:50:11;5.10;99.90
4820;DHT22;2424;49.696;6.630;2024-03-23T18:55:33;5.10;99.90
4820;DHT22;2424;49.696;6.630;2024-03-23T19:00:56;5.00;99.90
4820;DHT22;2424;49.696;6.630;2024-03-23T19:06:19;5.00;99.90
4820;DHT22;2424;49.696;6.630;2024-03-23T19:11:41;4.90;99.90
4820;DHT22;2424;49.696;6.630;2024-03-23T19:17:03;5.00;99.90
4820;DHT22;2424;49.696;6.630;2024-03-23T19:22:26;5.00;99.90
4820;DHT22;2424;49.696;6.630;2024-03-23T19:27:48;5.00;99.90
4820;DHT22;2424;49.696;6.630;2024-03-23T19:33:10;4.90;99.90
4820;DHT22;2424;49.696;6.630;2024-03-23T19:38:33;4.90;99.90
4820;DHT22;2424;49.696;6.630;2024-03-23T19:43:55;4.80;99.90
4820;DHT22;2424;49.696;6.630;2024-03-23T19:49:17;4.90;99.90
4820;DHT22;2424;49.696;6.630;2024-03-23T19:54:41;5.00;99.90
4820;DHT22;2424;49.696;6.630;2024-03-23T20:00:05;4.90;99.90
4820;DHT22;2424;49.696;6.630;2024-03-23T20:05:27;4.90;99.90
4820;DHT22;2424;49.696;6.630;2024-03-23T20:10:51;5.00;99.90
4820;DHT22;2424;49.696;6.630;2024-03-23T20:16:12;5.10;99.90
4820;DHT22;2424;49.696;6.630;2024-03-23T20:21:35;5.00;99.90
4820;DHT22;2424;49.696;6.630;2024-03-23T20:26:58;5.00;99.90
4820;DHT22;2424;49.696;6.630;2024-03-23T20:32:20;5.00;99.90
4820;DHT22;2424;49.696;6.630;2024-03-23T20:37:42;4.90;99.90
4820;DHT22;2424;49.696;6.630;2024-03-23T20:43:08;5.00;99.90
4820;DHT22;2424;49.696;6.630;2024-03-23T20:48:31;5.00;99.90
4820;DHT22;2424;49.696;6.630;2024-03-23T20:53:56;4.90;99.90
4820;DHT22;2424;49.696;6.630;2024-03-23T20:59:20;4.80;99.90
4820;DHT22;2424;49.696;6.630;2024-03-23T21:04:42;4.70;99.90
4820;DHT22;2424;49.696;6.630;2024-03-23T21:10:06;4.80;99.90
4820;DHT22;2424;49.696;6.630;2024-03-23T21:15:30;4.70;99.90
4820;DHT22;2424;49.696;6.630;2024-03-23T21:20:55;4.60;99.90
4820;DHT22;2424;49.696;6.630;2024-03-23T21:26:18;4.60;99.90
4820;DHT22;2424;49.696;6.630;2024-03-23T21:31:41;4.60;99.90
4820;DHT22;2424;49.696;6.630;2024-03-23T21:37:03;4.50;99.90
4820;DHT22;2424;49.696;6.630;2024-03-23T21:42:25;4.50;99.90
4820;DHT22;2424;49.696;6.630;2024-03-23T21:47:49;4.50;99.90
4820;DHT22;2424;49.696;6.630;2024-03-23T21:53:10;4.50;99.90
4820;DHT22;2424;49.696;6.630;2024-03-23T21:58:32;4.60;99.90
4820;DHT22;2424;49.696;6.630;2024-03-23T22:03:56;4.50;99.90
4820;DHT22;2424;49.696;6.630;2024-03-23T22:09:18;4.50;99.90
4820;DHT22;2424;49.696;6.630;2024-03-23T22:14:40;4.60;99.90
4820;DHT22;2424;49.696;6.630;2024-03-23T22:20:06;4.50;99.90
4820;DHT22;2424;49.696;6.630;2024-03-23T22:25:30;4.60;99.90
4820;DHT22;2424;49.696;6.630;2024-03-23T22:30:55;4.50;99.90
4820;DHT22;2424;49.696;6.630;2024-03-23T22:36:18;4.50;99.90
4820;DHT22;2424;49.696;6.630;2024-03-23T22:41:40;4.50;99.90
4820;DHT22;2424;49.696;6.630;2024-03-23T22:47:02;4.60;99.90
4820;DHT22;2424;49.696;6.630;2024-03-23T22:52:26;4.60;99.90
4820;DHT22;2424;49.696;6.630;2024-03-23T22:57:48;4.60;99.90
4820;DHT22;2424;49.696;6.630;2024-03-23T23:03:11;4.50;99.90
4820;DHT22;2424;49.696;6.630;2024-03-23T23:08:35;4.50;99.90
4820;DHT22;2424;49.696;6.630;2024-03-23T23:13:57;4.40;99.90
4820;DHT22;2424;49.696;6.630;2024-03-23T23:19:19;4.40;99.90
4820;DHT22;2424;49.696;6.630;2024-03-23T23:24:43;4.50;99.90
4820;DHT22;2424;49.696;6.630;2024-03-23T23:30:05;4.30;99.90
4820;DHT22;2424;49.696;6.630;2024-03-23T23:35:28;4.30;99.90
4820;DHT22;2424;49.696;6.630;2024-03-23T23:40:51;4.30;99.90
4820;DHT22;2424;49.696;6.630;2024-03-23T23:46:13;4.40;99.90
4820;DHT22;2424;49.696;6.630;2024-03-23T23:51:35;4.50;99.90
4820;DHT22;2424;49.696;6.630;2024-03-23T23:56:58;4.40;99.90
